sensor_id;sensor_type;location;lat;lon;timestamp;temperature;humidity
69546;SHT31;56766;52.260;20.746;2023-12-20T00:01:54;6.23;94.00
69546;SHT31;56766;52.260;20.746;2023-12-20T00:04:20;6.23;94.00
69546;SHT31;56766;52.260;20.746;2023-12-20T00:06:46;6.22;94.00
69546;SHT31;56766;52.260;20.746;2023-12-20T00:09:12;6.23;94.01
69546;SHT31;56766;52.260;20.746;2023-12-20T00:11:38;6.22;94.00
69546;SHT31;56766;52.260;20.746;2023-12-20T00:14:04;6.23;94.00
69546;SHT31;56766;52.260;20.746;2023-12-20T00:16:30;6.24;94.02
69546;SHT31;56766;52.260;20.746;2023-12-20T00:18:57;6.23;94.02
69546;SHT31;56766;52.260;20.746;2023-12-20T00:21:23;6.23;94.02
69546;SHT31;56766;52.260;20.746;2023-12-20T00:23:49;6.22;94.03
69546;SHT31;56766;52.260;20.746;2023-12-20T00:26:15;6.22;94.05
69546;SHT31;56766;52.260;20.746;2023-12-20T00:28:41;6.23;94.09
69546;SHT31;56766;52.260;20.746;2023-12-20T00:31:08;6.23;94.10
69546;SHT31;56766;52.260;20.746;2023-12-20T00:33:34;6.23;94.10
69546;SHT31;56766;52.260;20.746;2023-12-20T00:36:00;6.24;94.09
69546;SHT31;56766;52.260;20.746;2023-12-20T00:38:27;6.24;94.10
69546;SHT31;56766;52.260;20.746;2023-12-20T00:40:53;6.24;94.10
69546;SHT31;56766;52.260;20.746;2023-12-20T00:43:19;6.24;94.10
69546;SHT31;56766;52.260;20.746;2023-12-20T00:45:45;6.24;94.10
69546;SHT31;56766;52.260;20.746;2023-12-20T00:48:11;6.24;94.10
69546;SHT31;56766;52.260;20.746;2023-12-20T00:50:37;6.23;94.10
69546;SHT31;56766;52.260;20.746;2023-12-20T00:53:03;6.23;94.11
69546;SHT31;56766;52.260;20.746;2023-12-20T00:55:29;6.23;94.15
69546;SHT31;56766;52.260;20.746;2023-12-20T00:57:55;6.24;94.16
69546;SHT31;56766;52.260;20.746;2023-12-20T01:00:21;6.23;94.19
69546;SHT31;56766;52.260;20.746;2023-12-20T01:02:47;6.24;94.18
69546;SHT31;56766;52.260;20.746;2023-12-20T01:05:15;6.25;94.20
69546;SHT31;56766;52.260;20.746;2023-12-20T01:07:41;6.24;94.20
69546;SHT31;56766;52.260;20.746;2023-12-20T01:10:07;6.25;94.20
69546;SHT31;56766;52.260;20.746;2023-12-20T01:12:35;6.25;94.21
69546;SHT31;56766;52.260;20.746;2023-12-20T01:15:02;6.25;94.20
69546;SHT31;56766;52.260;20.746;2023-12-20T01:17:28;6.25;94.21
69546;SHT31;56766;52.260;20.746;2023-12-20T01:19:54;6.26;94.22
69546;SHT31;56766;52.260;20.746;2023-12-20T01:22:20;6.27;94.21
69546;SHT31;56766;52.260;20.746;2023-12-20T01:24:46;6.27;94.20
69546;SHT31;56766;52.260;20.746;2023-12-20T01:27:12;6.28;94.21
69546;SHT31;56766;52.260;20.746;2023-12-20T01:29:38;6.27;94.20
69546;SHT31;56766;52.260;20.746;2023-12-20T01:32:04;6.28;94.22
69546;SHT31;56766;52.260;20.746;2023-12-20T01:34:31;6.29;94.24
69546;SHT31;56766;52.260;20.746;2023-12-20T01:36:57;6.28;94.22
69546;SHT31;56766;52.260;20.746;2023-12-20T01:39:23;6.28;94.24
69546;SHT31;56766;52.260;20.746;2023-12-20T01:41:49;6.28;94.25
69546;SHT31;56766;52.260;20.746;2023-12-20T01:44:15;6.28;94.28
69546;SHT31;56766;52.260;20.746;2023-12-20T01:46:41;6.29;94.27
69546;SHT31;56766;52.260;20.746;2023-12-20T01:49:07;6.30;94.26
69546;SHT31;56766;52.260;20.746;2023-12-20T01:51:35;6.29;94.22
69546;SHT31;56766;52.260;20.746;2023-12-20T01:54:02;6.29;94.24
69546;SHT31;56766;52.260;20.746;2023-12-20T01:56:31;6.28;94.21
69546;SHT31;56766;52.260;20.746;2023-12-20T01:59:00;6.29;94.20
69546;SHT31;56766;52.260;20.746;2023-12-20T02:01:27;6.29;94.21
69546;SHT31;56766;52.260;20.746;2023-12-20T02:03:55;6.29;94.23
69546;SHT31;56766;52.260;20.746;2023-12-20T02:06:23;6.28;94.21
69546;SHT31;56766;52.260;20.746;2023-12-20T02:08:54;6.28;94.22
69546;SHT31;56766;52.260;20.746;2023-12-20T02:11:21;6.28;94.20
69546;SHT31;56766;52.260;20.746;2023-12-20T02:13:47;6.28;94.20
69546;SHT31;56766;52.260;20.746;2023-12-20T02:16:13;6.27;94.20
69546;SHT31;56766;52.260;20.746;2023-12-20T02:18:39;6.28;94.20
69546;SHT31;56766;52.260;20.746;2023-12-20T02:21:05;6.28;94.20
69546;SHT31;56766;52.260;20.746;2023-12-20T02:23:31;6.27;94.20
69546;SHT31;56766;52.260;20.746;2023-12-20T02:25:57;6.27;94.20
69546;SHT31;56766;52.260;20.746;2023-12-20T02:28:24;6.26;94.20
69546;SHT31;56766;52.260;20.746;2023-12-20T02:30:50;6.27;94.20
69546;SHT31;56766;52.260;20.746;2023-12-20T02:33:16;6.26;94.19
69546;SHT31;56766;52.260;20.746;2023-12-20T02:35:42;6.26;94.20
69546;SHT31;56766;52.260;20.746;2023-12-20T02:38:08;6.26;94.18
69546;SHT31;56766;52.260;20.746;2023-12-20T02:40:34;6.26;94.19
69546;SHT31;56766;52.260;20.746;2023-12-20T02:43:00;6.27;94.18
69546;SHT31;56766;52.260;20.746;2023-12-20T02:45:26;6.26;94.17
69546;SHT31;56766;52.260;20.746;2023-12-20T02:47:53;6.25;94.16
69546;SHT31;56766;52.260;20.746;2023-12-20T02:50:19;6.25;94.15
69546;SHT31;56766;52.260;20.746;2023-12-20T02:52:45;6.26;94.20
69546;SHT31;56766;52.260;20.746;2023-12-20T02:55:11;6.26;94.16
69546;SHT31;56766;52.260;20.746;2023-12-20T02:57:37;6.26;94.19
69546;SHT31;56766;52.260;20.746;2023-12-20T03:00:09;6.27;94.16
69546;SHT31;56766;52.260;20.746;2023-12-20T03:02:36;6.26;94.14
69546;SHT31;56766;52.260;20.746;2023-12-20T03:05:03;6.27;94.19
69546;SHT31;56766;52.260;20.746;2023-12-20T03:07:29;6.26;94.17
69546;SHT31;56766;52.260;20.746;2023-12-20T03:09:55;6.26;94.18
69546;SHT31;56766;52.260;20.746;2023-12-20T03:12:21;6.27;94.20
69546;SHT31;56766;52.260;20.746;2023-12-20T03:14:48;6.28;94.20
69546;SHT31;56766;52.260;20.746;2023-12-20T03:17:14;6.28;94.19
69546;SHT31;56766;52.260;20.746;2023-12-20T03:19:40;6.28;94.20
69546;SHT31;56766;52.260;20.746;2023-12-20T03:22:06;6.28;94.20
69546;SHT31;56766;52.260;20.746;2023-12-20T03:24:32;6.28;94.19
69546;SHT31;56766;52.260;20.746;2023-12-20T03:26:58;6.28;94.20
69546;SHT31;56766;52.260;20.746;2023-12-20T03:29:24;6.28;94.20
69546;SHT31;56766;52.260;20.746;2023-12-20T03:31:50;6.28;94.20
69546;SHT31;56766;52.260;20.746;2023-12-20T03:34:16;6.28;94.20
69546;SHT31;56766;52.260;20.746;2023-12-20T03:36:42;6.27;94.20
69546;SHT31;56766;52.260;20.746;2023-12-20T03:39:08;6.27;94.20
69546;SHT31;56766;52.260;20.746;2023-12-20T03:41:35;6.27;94.20
69546;SHT31;56766;52.260;20.746;2023-12-20T03:44:01;6.27;94.20
69546;SHT31;56766;52.260;20.746;2023-12-20T03:46:27;6.26;94.20
69546;SHT31;56766;52.260;20.746;2023-12-20T03:48:53;6.26;94.20
69546;SHT31;56766;52.260;20.746;2023-12-20T03:51:19;6.26;94.19
69546;SHT31;56766;52.260;20.746;2023-12-20T03:53:45;6.25;94.20
69546;SHT31;56766;52.260;20.746;2023-12-20T03:56:11;6.25;94.20
69546;SHT31;56766;52.260;20.746;2023-12-20T03:58:37;6.25;94.20
69546;SHT31;56766;52.260;20.746;2023-12-20T04:01:03;6.25;94.19
69546;SHT31;56766;52.260;20.746;2023-12-20T04:03:34;6.25;94.19
69546;SHT31;56766;52.260;20.746;2023-12-20T04:06:00;6.25;94.18
69546;SHT31;56766;52.260;20.746;2023-12-20T04:08:26;6.25;94.16
69546;SHT31;56766;52.260;20.746;2023-12-20T04:10:52;6.24;94.20
69546;SHT31;56766;52.260;20.746;2023-12-20T04:13:18;6.24;94.18
69546;SHT31;56766;52.260;20.746;2023-12-20T04:15:44;6.24;94.19
69546;SHT31;56766;52.260;20.746;2023-12-20T04:18:10;6.24;94.20
69546;SHT31;56766;52.260;20.746;2023-12-20T04:20:36;6.25;94.20
69546;SHT31;56766;52.260;20.746;2023-12-20T04:23:01;6.25;94.20
69546;SHT31;56766;52.260;20.746;2023-12-20T04:25:27;6.26;94.20
69546;SHT31;56766;52.260;20.746;2023-12-20T04:27:53;6.26;94.20
69546;SHT31;56766;52.260;20.746;2023-12-20T04:30:19;6.25;94.20
69546;SHT31;56766;52.260;20.746;2023-12-20T04:32:45;6.25;94.20
69546;SHT31;56766;52.260;20.746;2023-12-20T04:35:11;6.24;94.20
69546;SHT31;56766;52.260;20.746;2023-12-20T04:37:37;6.24;94.20
69546;SHT31;56766;52.260;20.746;2023-12-20T04:40:03;6.25;94.20
69546;SHT31;56766;52.260;20.746;2023-12-20T04:42:31;6.24;94.19
69546;SHT31;56766;52.260;20.746;2023-12-20T04:44:57;6.23;94.18
69546;SHT31;56766;52.260;20.746;2023-12-20T04:47:23;6.22;94.20
69546;SHT31;56766;52.260;20.746;2023-12-20T04:49:49;6.22;94.20
69546;SHT31;56766;52.260;20.746;2023-12-20T04:52:15;6.23;94.20
69546;SHT31;56766;52.260;20.746;2023-12-20T04:54:41;6.22;94.20
69546;SHT31;56766;52.260;20.746;2023-12-20T04:57:07;6.23;94.20
69546;SHT31;56766;52.260;20.746;2023-12-20T04:59:32;6.23;94.21
69546;SHT31;56766;52.260;20.746;2023-12-20T05:01:58;6.24;94.20
69546;SHT31;56766;52.260;20.746;2023-12-20T05:04:24;6.25;94.20
69546;SHT31;56766;52.260;20.746;2023-12-20T05:06:50;6.26;94.23
69546;SHT31;56766;52.260;20.746;2023-12-20T05:09:16;6.27;94.21
69546;SHT31;56766;52.260;20.746;2023-12-20T05:11:43;6.26;94.20
69546;SHT31;56766;52.260;20.746;2023-12-20T05:14:09;6.25;94.20
69546;SHT31;56766;52.260;20.746;2023-12-20T05:16:35;6.25;94.22
69546;SHT31;56766;52.260;20.746;2023-12-20T05:19:01;6.25;94.22
69546;SHT31;56766;52.260;20.746;2023-12-20T05:21:32;6.26;94.22
69546;SHT31;56766;52.260;20.746;2023-12-20T05:23:59;6.26;94.21
69546;SHT31;56766;52.260;20.746;2023-12-20T05:26:26;6.26;94.20
69546;SHT31;56766;52.260;20.746;2023-12-20T05:28:52;6.25;94.20
69546;SHT31;56766;52.260;20.746;2023-12-20T05:31:18;6.24;94.20
69546;SHT31;56766;52.260;20.746;2023-12-20T05:33:44;6.24;94.20
69546;SHT31;56766;52.260;20.746;2023-12-20T05:36:10;6.23;94.20
69546;SHT31;56766;52.260;20.746;2023-12-20T05:38:39;6.23;94.21
69546;SHT31;56766;52.260;20.746;2023-12-20T05:41:05;6.22;94.20
69546;SHT31;56766;52.260;20.746;2023-12-20T05:43:31;6.21;94.20
69546;SHT31;56766;52.260;20.746;2023-12-20T05:45:57;6.20;94.20
69546;SHT31;56766;52.260;20.746;2023-12-20T05:48:23;6.19;94.21
69546;SHT31;56766;52.260;20.746;2023-12-20T05:50:49;6.19;94.20
69546;SHT31;56766;52.260;20.746;2023-12-20T05:53:16;6.18;94.20
69546;SHT31;56766;52.260;20.746;2023-12-20T05:55:42;6.17;94.20
69546;SHT31;56766;52.260;20.746;2023-12-20T05:58:07;6.18;94.21
69546;SHT31;56766;52.260;20.746;2023-12-20T06:00:33;6.18;94.20
69546;SHT31;56766;52.260;20.746;2023-12-20T06:02:59;6.17;94.20
69546;SHT31;56766;52.260;20.746;2023-12-20T06:05:25;6.18;94.20
69546;SHT31;56766;52.260;20.746;2023-12-20T06:07:51;6.17;94.20
69546;SHT31;56766;52.260;20.746;2023-12-20T06:10:18;6.17;94.20
69546;SHT31;56766;52.260;20.746;2023-12-20T06:12:44;6.17;94.20
69546;SHT31;56766;52.260;20.746;2023-12-20T06:15:11;6.17;94.20
69546;SHT31;56766;52.260;20.746;2023-12-20T06:17:37;6.17;94.20
69546;SHT31;56766;52.260;20.746;2023-12-20T06:20:03;6.16;94.20
69546;SHT31;56766;52.260;20.746;2023-12-20T06:22:34;6.16;94.20
69546;SHT31;56766;52.260;20.746;2023-12-20T06:25:02;6.15;94.20
69546;SHT31;56766;52.260;20.746;2023-12-20T06:27:28;6.15;94.20
69546;SHT31;56766;52.260;20.746;2023-12-20T06:29:54;6.15;94.21
69546;SHT31;56766;52.260;20.746;2023-12-20T06:32:21;6.16;94.22
69546;SHT31;56766;52.260;20.746;2023-12-20T06:34:49;6.16;94.23
69546;SHT31;56766;52.260;20.746;2023-12-20T06:37:15;6.15;94.20
69546;SHT31;56766;52.260;20.746;2023-12-20T06:39:41;6.16;94.24
69546;SHT31;56766;52.260;20.746;2023-12-20T06:42:07;6.18;94.25
69546;SHT31;56766;52.260;20.746;2023-12-20T06:44:33;6.17;94.25
69546;SHT31;56766;52.260;20.746;2023-12-20T06:47:00;6.18;94.24
69546;SHT31;56766;52.260;20.746;2023-12-20T06:49:26;6.19;94.27
69546;SHT31;56766;52.260;20.746;2023-12-20T06:51:52;6.18;94.27
69546;SHT31;56766;52.260;20.746;2023-12-20T06:54:18;6.18;94.27
69546;SHT31;56766;52.260;20.746;2023-12-20T06:56:44;6.19;94.30
69546;SHT31;56766;52.260;20.746;2023-12-20T06:59:10;6.20;94.30
69546;SHT31;56766;52.260;20.746;2023-12-20T07:01:36;6.20;94.29
69546;SHT31;56766;52.260;20.746;2023-12-20T07:04:03;6.20;94.29
69546;SHT31;56766;52.260;20.746;2023-12-20T07:06:29;6.21;94.30
69546;SHT31;56766;52.260;20.746;2023-12-20T07:08:55;6.22;94.30
69546;SHT31;56766;52.260;20.746;2023-12-20T07:11:21;6.22;94.29
69546;SHT31;56766;52.260;20.746;2023-12-20T07:13:47;6.22;94.30
69546;SHT31;56766;52.260;20.746;2023-12-20T07:16:13;6.23;94.30
69546;SHT31;56766;52.260;20.746;2023-12-20T07:18:39;6.23;94.30
69546;SHT31;56766;52.260;20.746;2023-12-20T07:21:05;6.23;94.30
69546;SHT31;56766;52.260;20.746;2023-12-20T07:23:34;6.23;94.30
69546;SHT31;56766;52.260;20.746;2023-12-20T07:25:59;6.24;94.31
69546;SHT31;56766;52.260;20.746;2023-12-20T07:28:25;6.25;94.30
69546;SHT31;56766;52.260;20.746;2023-12-20T07:30:52;6.26;94.30
69546;SHT31;56766;52.260;20.746;2023-12-20T07:33:18;6.26;94.30
69546;SHT31;56766;52.260;20.746;2023-12-20T07:35:43;6.26;94.30
69546;SHT31;56766;52.260;20.746;2023-12-20T07:38:11;6.28;94.32
69546;SHT31;56766;52.260;20.746;2023-12-20T07:40:38;6.29;94.30
69546;SHT31;56766;52.260;20.746;2023-12-20T07:43:04;6.30;94.30
69546;SHT31;56766;52.260;20.746;2023-12-20T07:45:30;6.30;94.30
69546;SHT31;56766;52.260;20.746;2023-12-20T07:47:56;6.31;94.31
69546;SHT31;56766;52.260;20.746;2023-12-20T07:50:22;6.31;94.30
69546;SHT31;56766;52.260;20.746;2023-12-20T07:52:48;6.32;94.30
69546;SHT31;56766;52.260;20.746;2023-12-20T07:55:14;6.32;94.30
69546;SHT31;56766;52.260;20.746;2023-12-20T07:57:40;6.33;94.30
69546;SHT31;56766;52.260;20.746;2023-12-20T08:00:07;6.34;94.30
69546;SHT31;56766;52.260;20.746;2023-12-20T08:02:33;6.34;94.30
69546;SHT31;56766;52.260;20.746;2023-12-20T08:04:59;6.36;94.30
69546;SHT31;56766;52.260;20.746;2023-12-20T08:07:25;6.36;94.26
69546;SHT31;56766;52.260;20.746;2023-12-20T08:09:51;6.38;94.24
69546;SHT31;56766;52.260;20.746;2023-12-20T08:12:17;6.39;94.23
69546;SHT31;56766;52.260;20.746;2023-12-20T08:14:43;6.41;94.23
69546;SHT31;56766;52.260;20.746;2023-12-20T08:17:09;6.43;94.22
69546;SHT31;56766;52.260;20.746;2023-12-20T08:19:35;6.43;94.20
69546;SHT31;56766;52.260;20.746;2023-12-20T08:22:01;6.43;94.20
69546;SHT31;56766;52.260;20.746;2023-12-20T08:24:28;6.44;94.20
69546;SHT31;56766;52.260;20.746;2023-12-20T08:26:55;6.45;94.20
69546;SHT31;56766;52.260;20.746;2023-12-20T08:29:21;6.46;94.20
69546;SHT31;56766;52.260;20.746;2023-12-20T08:31:52;6.45;94.14
69546;SHT31;56766;52.260;20.746;2023-12-20T08:34:20;6.46;94.13
69546;SHT31;56766;52.260;20.746;2023-12-20T08:36:46;6.47;94.13
69546;SHT31;56766;52.260;20.746;2023-12-20T08:39:12;6.48;94.14
69546;SHT31;56766;52.260;20.746;2023-12-20T08:41:38;6.47;94.13
69546;SHT31;56766;52.260;20.746;2023-12-20T08:44:04;6.50;94.15
69546;SHT31;56766;52.260;20.746;2023-12-20T08:46:30;6.51;94.15
69546;SHT31;56766;52.260;20.746;2023-12-20T08:48:56;6.53;94.10
69546;SHT31;56766;52.260;20.746;2023-12-20T08:51:22;6.53;94.10
69546;SHT31;56766;52.260;20.746;2023-12-20T08:53:49;6.55;94.10
69546;SHT31;56766;52.260;20.746;2023-12-20T08:56:15;6.53;94.10
69546;SHT31;56766;52.260;20.746;2023-12-20T08:58:41;6.53;94.02
69546;SHT31;56766;52.260;20.746;2023-12-20T09:01:07;6.52;94.04
69546;SHT31;56766;52.260;20.746;2023-12-20T09:03:33;6.53;94.06
69546;SHT31;56766;52.260;20.746;2023-12-20T09:05:59;6.54;94.09
69546;SHT31;56766;52.260;20.746;2023-12-20T09:08:25;6.53;94.06
69546;SHT31;56766;52.260;20.746;2023-12-20T09:10:51;6.52;94.01
69546;SHT31;56766;52.260;20.746;2023-12-20T09:13:17;6.53;94.02
69546;SHT31;56766;52.260;20.746;2023-12-20T09:15:43;6.54;94.01
69546;SHT31;56766;52.260;20.746;2023-12-20T09:18:09;6.56;94.04
69546;SHT31;56766;52.260;20.746;2023-12-20T09:20:35;6.57;94.03
69546;SHT31;56766;52.260;20.746;2023-12-20T09:23:01;6.57;94.00
69546;SHT31;56766;52.260;20.746;2023-12-20T09:25:27;6.56;94.01
69546;SHT31;56766;52.260;20.746;2023-12-20T09:27:54;6.57;94.00
69546;SHT31;56766;52.260;20.746;2023-12-20T09:30:19;6.59;94.00
69546;SHT31;56766;52.260;20.746;2023-12-20T09:32:46;6.61;94.03
69546;SHT31;56766;52.260;20.746;2023-12-20T09:35:12;6.63;94.02
69546;SHT31;56766;52.260;20.746;2023-12-20T09:37:38;6.65;94.01
69546;SHT31;56766;52.260;20.746;2023-12-20T09:40:11;6.65;94.00
69546;SHT31;56766;52.260;20.746;2023-12-20T09:42:57;6.66;94.00
69546;SHT31;56766;52.260;20.746;2023-12-20T09:45:31;6.68;94.00
69546;SHT31;56766;52.260;20.746;2023-12-20T09:47:58;6.69;94.00
69546;SHT31;56766;52.260;20.746;2023-12-20T09:50:25;6.71;94.00
69546;SHT31;56766;52.260;20.746;2023-12-20T09:52:53;6.72;93.96
69546;SHT31;56766;52.260;20.746;2023-12-20T09:55:22;6.71;93.95
69546;SHT31;56766;52.260;20.746;2023-12-20T09:57:50;6.70;93.90
69546;SHT31;56766;52.260;20.746;2023-12-20T10:00:17;6.68;93.90
69546;SHT31;56766;52.260;20.746;2023-12-20T10:02:57;6.67;93.88
69546;SHT31;56766;52.260;20.746;2023-12-20T10:05:32;6.67;93.90
69546;SHT31;56766;52.260;20.746;2023-12-20T10:08:00;6.68;93.90
69546;SHT31;56766;52.260;20.746;2023-12-20T10:10:27;6.67;93.87
69546;SHT31;56766;52.260;20.746;2023-12-20T10:13:12;6.66;93.82
69546;SHT31;56766;52.260;20.746;2023-12-20T10:15:39;6.66;93.80
69546;SHT31;56766;52.260;20.746;2023-12-20T10:18:07;6.68;93.87
69546;SHT31;56766;52.260;20.746;2023-12-20T10:20:33;6.70;93.86
69546;SHT31;56766;52.260;20.746;2023-12-20T10:23:00;6.71;93.82
69546;SHT31;56766;52.260;20.746;2023-12-20T10:25:27;6.72;93.80
69546;SHT31;56766;52.260;20.746;2023-12-20T10:28:16;6.74;93.81
69546;SHT31;56766;52.260;20.746;2023-12-20T10:30:46;6.73;93.80
69546;SHT31;56766;52.260;20.746;2023-12-20T10:33:13;6.74;93.80
69546;SHT31;56766;52.260;20.746;2023-12-20T10:35:40;6.75;93.79
69546;SHT31;56766;52.260;20.746;2023-12-20T10:38:07;6.77;93.80
69546;SHT31;56766;52.260;20.746;2023-12-20T10:40:35;6.80;93.80
69546;SHT31;56766;52.260;20.746;2023-12-20T10:43:03;6.82;93.74
69546;SHT31;56766;52.260;20.746;2023-12-20T10:45:30;6.85;93.73
69546;SHT31;56766;52.260;20.746;2023-12-20T10:47:57;6.87;93.70
69546;SHT31;56766;52.260;20.746;2023-12-20T10:50:27;6.87;93.69
69546;SHT31;56766;52.260;20.746;2023-12-20T10:52:56;6.86;93.63
69546;SHT31;56766;52.260;20.746;2023-12-20T10:55:23;6.84;93.60
69546;SHT31;56766;52.260;20.746;2023-12-20T10:57:51;6.83;93.60
69546;SHT31;56766;52.260;20.746;2023-12-20T11:00:19;6.83;93.60
69546;SHT31;56766;52.260;20.746;2023-12-20T11:02:49;6.84;93.60
69546;SHT31;56766;52.260;20.746;2023-12-20T11:05:38;6.87;93.61
69546;SHT31;56766;52.260;20.746;2023-12-20T11:08:37;6.92;93.66
69546;SHT31;56766;52.260;20.746;2023-12-20T11:14:12;6.98;93.62
69546;SHT31;56766;52.260;20.746;2023-12-20T11:16:46;7.00;93.60
69546;SHT31;56766;52.260;20.746;2023-12-20T11:19:12;7.01;93.60
69546;SHT31;56766;52.260;20.746;2023-12-20T11:21:40;7.02;93.59
69546;SHT31;56766;52.260;20.746;2023-12-20T11:24:07;6.99;93.51
69546;SHT31;56766;52.260;20.746;2023-12-20T11:26:33;6.97;93.54
69546;SHT31;56766;52.260;20.746;2023-12-20T11:29:35;6.97;93.52
69546;SHT31;56766;52.260;20.746;2023-12-20T11:32:03;6.95;93.50
69546;SHT31;56766;52.260;20.746;2023-12-20T11:35:01;6.93;93.50
69546;SHT31;56766;52.260;20.746;2023-12-20T11:37:38;6.89;93.44
69546;SHT31;56766;52.260;20.746;2023-12-20T11:40:14;6.87;93.43
69546;SHT31;56766;52.260;20.746;2023-12-20T11:42:43;6.84;93.44
69546;SHT31;56766;52.260;20.746;2023-12-20T11:45:14;6.82;93.47
69546;SHT31;56766;52.260;20.746;2023-12-20T11:47:46;6.80;93.47
69546;SHT31;56766;52.260;20.746;2023-12-20T11:50:13;6.79;93.49
69546;SHT31;56766;52.260;20.746;2023-12-20T11:52:40;6.75;93.50
69546;SHT31;56766;52.260;20.746;2023-12-20T11:55:06;6.74;93.45
69546;SHT31;56766;52.260;20.746;2023-12-20T11:57:33;6.73;93.47
69546;SHT31;56766;52.260;20.746;2023-12-20T12:00:00;6.72;93.43
69546;SHT31;56766;52.260;20.746;2023-12-20T12:02:26;6.70;93.40
69546;SHT31;56766;52.260;20.746;2023-12-20T12:04:52;6.69;93.44
69546;SHT31;56766;52.260;20.746;2023-12-20T12:07:18;6.66;93.40
69546;SHT31;56766;52.260;20.746;2023-12-20T12:09:45;6.65;93.35
69546;SHT31;56766;52.260;20.746;2023-12-20T12:12:13;6.62;93.23
69546;SHT31;56766;52.260;20.746;2023-12-20T12:14:39;6.56;93.13
69546;SHT31;56766;52.260;20.746;2023-12-20T12:17:13;6.52;93.09
69546;SHT31;56766;52.260;20.746;2023-12-20T12:19:40;6.47;93.00
69546;SHT31;56766;52.260;20.746;2023-12-20T12:22:12;6.42;92.98
69546;SHT31;56766;52.260;20.746;2023-12-20T12:24:40;6.36;92.98
69546;SHT31;56766;52.260;20.746;2023-12-20T12:27:07;6.32;92.97
69546;SHT31;56766;52.260;20.746;2023-12-20T12:29:35;6.28;92.92
69546;SHT31;56766;52.260;20.746;2023-12-20T12:32:09;6.26;92.98
69546;SHT31;56766;52.260;20.746;2023-12-20T12:34:36;6.28;93.06
69546;SHT31;56766;52.260;20.746;2023-12-20T12:37:06;6.29;93.07
69546;SHT31;56766;52.260;20.746;2023-12-20T12:39:34;6.31;93.10
69546;SHT31;56766;52.260;20.746;2023-12-20T12:42:00;6.33;93.15
69546;SHT31;56766;52.260;20.746;2023-12-20T12:44:26;6.33;93.11
69546;SHT31;56766;52.260;20.746;2023-12-20T12:46:52;6.33;93.11
69546;SHT31;56766;52.260;20.746;2023-12-20T12:49:20;6.34;93.19
69546;SHT31;56766;52.260;20.746;2023-12-20T12:51:48;6.32;93.10
69546;SHT31;56766;52.260;20.746;2023-12-20T12:54:14;6.31;93.10
69546;SHT31;56766;52.260;20.746;2023-12-20T12:56:43;6.29;93.10
69546;SHT31;56766;52.260;20.746;2023-12-20T12:59:10;6.27;93.09
69546;SHT31;56766;52.260;20.746;2023-12-20T13:01:36;6.26;93.10
69546;SHT31;56766;52.260;20.746;2023-12-20T13:04:02;6.24;93.03
69546;SHT31;56766;52.260;20.746;2023-12-20T13:06:32;6.20;92.97
69546;SHT31;56766;52.260;20.746;2023-12-20T13:08:59;6.18;92.89
69546;SHT31;56766;52.260;20.746;2023-12-20T13:11:25;6.17;92.90
69546;SHT31;56766;52.260;20.746;2023-12-20T13:13:51;6.17;92.86
69546;SHT31;56766;52.260;20.746;2023-12-20T13:16:17;6.16;92.89
69546;SHT31;56766;52.260;20.746;2023-12-20T13:18:43;6.15;92.89
69546;SHT31;56766;52.260;20.746;2023-12-20T13:21:09;6.17;92.89
69546;SHT31;56766;52.260;20.746;2023-12-20T13:23:35;6.16;92.83
69546;SHT31;56766;52.260;20.746;2023-12-20T13:26:02;6.17;92.76
69546;SHT31;56766;52.260;20.746;2023-12-20T13:28:29;6.15;92.70
69546;SHT31;56766;52.260;20.746;2023-12-20T13:30:56;6.14;92.70
69546;SHT31;56766;52.260;20.746;2023-12-20T13:33:23;6.13;92.70
69546;SHT31;56766;52.260;20.746;2023-12-20T13:35:50;6.12;92.71
69546;SHT31;56766;52.260;20.746;2023-12-20T13:38:17;6.10;92.70
69546;SHT31;56766;52.260;20.746;2023-12-20T13:40:43;6.10;92.73
69546;SHT31;56766;52.260;20.746;2023-12-20T13:43:10;6.10;92.76
69546;SHT31;56766;52.260;20.746;2023-12-20T13:45:38;6.09;92.75
69546;SHT31;56766;52.260;20.746;2023-12-20T13:48:05;6.07;92.80
69546;SHT31;56766;52.260;20.746;2023-12-20T13:50:32;6.04;92.80
69546;SHT31;56766;52.260;20.746;2023-12-20T13:52:58;6.01;92.80
69546;SHT31;56766;52.260;20.746;2023-12-20T13:55:24;5.98;92.78
69546;SHT31;56766;52.260;20.746;2023-12-20T13:57:53;5.96;92.72
69546;SHT31;56766;52.260;20.746;2023-12-20T14:00:19;5.93;92.66
69546;SHT31;56766;52.260;20.746;2023-12-20T14:02:45;5.92;92.60
69546;SHT31;56766;52.260;20.746;2023-12-20T14:05:12;5.89;92.48
69546;SHT31;56766;52.260;20.746;2023-12-20T14:07:42;5.87;92.45
69546;SHT31;56766;52.260;20.746;2023-12-20T14:10:14;5.82;92.33
69546;SHT31;56766;52.260;20.746;2023-12-20T14:12:41;5.79;92.33
69546;SHT31;56766;52.260;20.746;2023-12-20T14:15:08;5.75;92.32
69546;SHT31;56766;52.260;20.746;2023-12-20T14:17:38;5.71;92.30
69546;SHT31;56766;52.260;20.746;2023-12-20T14:20:06;5.68;92.32
69546;SHT31;56766;52.260;20.746;2023-12-20T14:22:32;5.64;92.39
69546;SHT31;56766;52.260;20.746;2023-12-20T14:24:59;5.60;92.38
69546;SHT31;56766;52.260;20.746;2023-12-20T14:27:26;5.56;92.40
69546;SHT31;56766;52.260;20.746;2023-12-20T14:29:54;5.53;92.40
69546;SHT31;56766;52.260;20.746;2023-12-20T14:32:20;5.50;92.35
69546;SHT31;56766;52.260;20.746;2023-12-20T14:34:46;5.46;92.21
69546;SHT31;56766;52.260;20.746;2023-12-20T14:37:13;5.43;92.20
69546;SHT31;56766;52.260;20.746;2023-12-20T14:39:39;5.40;92.23
69546;SHT31;56766;52.260;20.746;2023-12-20T14:42:08;5.38;92.27
69546;SHT31;56766;52.260;20.746;2023-12-20T14:44:38;5.32;92.24
69546;SHT31;56766;52.260;20.746;2023-12-20T14:47:04;5.27;92.26
69546;SHT31;56766;52.260;20.746;2023-12-20T14:49:31;5.23;92.22
69546;SHT31;56766;52.260;20.746;2023-12-20T14:51:57;5.20;92.20
69546;SHT31;56766;52.260;20.746;2023-12-20T14:54:24;5.16;92.20
69546;SHT31;56766;52.260;20.746;2023-12-20T14:56:50;5.15;92.20
69546;SHT31;56766;52.260;20.746;2023-12-20T14:59:16;5.15;92.21
69546;SHT31;56766;52.260;20.746;2023-12-20T15:01:43;5.13;92.25
69546;SHT31;56766;52.260;20.746;2023-12-20T15:04:10;5.12;92.20
69546;SHT31;56766;52.260;20.746;2023-12-20T15:06:37;5.11;92.23
69546;SHT31;56766;52.260;20.746;2023-12-20T15:09:03;5.09;92.29
69546;SHT31;56766;52.260;20.746;2023-12-20T15:11:32;5.08;92.35
69546;SHT31;56766;52.260;20.746;2023-12-20T15:13:57;5.07;92.43
69546;SHT31;56766;52.260;20.746;2023-12-20T15:16:26;5.06;92.49
69546;SHT31;56766;52.260;20.746;2023-12-20T15:18:52;5.06;92.51
69546;SHT31;56766;52.260;20.746;2023-12-20T15:21:22;5.06;92.56
69546;SHT31;56766;52.260;20.746;2023-12-20T15:23:57;5.06;92.59
69546;SHT31;56766;52.260;20.746;2023-12-20T15:26:32;5.03;92.60
69546;SHT31;56766;52.260;20.746;2023-12-20T15:28:59;5.04;92.60
69546;SHT31;56766;52.260;20.746;2023-12-20T15:31:28;5.02;92.64
69546;SHT31;56766;52.260;20.746;2023-12-20T15:33:53;5.01;92.63